ADDS TAF Data INFO
IDs: Format: Raw Decoded Include METARs

Data at: 0455 UTC 22 Apr 2018

KIWA 220447Z 24006KT 20SM SCT150 24/M01 A2996

KIWA 212320Z 2200/2224 30007KT P6SM SCT250
  FM220500 11005KT P6SM SCT200
  FM221800 26007KT P6SM SCT180 BKN250 AMD LTD TO CLD VIS AND WIND 2203/2213